createdAt,value
2022-11-17T00:00:42.856Z,9.80
2022-11-17T00:03:14.179Z,8.00
2022-11-17T00:05:42.344Z,9.93
2022-11-17T00:08:10.466Z,10.30
2022-11-17T00:10:38.588Z,8.70
2022-11-17T00:13:24.314Z,10.27
2022-11-17T00:15:53.991Z,9.37
2022-11-17T00:18:39.746Z,8.63
2022-11-17T00:21:21.427Z,9.40
2022-11-17T00:23:50.391Z,9.93
2022-11-17T00:26:20.568Z,9.40
2022-11-17T00:28:48.793Z,8.77
2022-11-17T00:31:36.076Z,10.13
2022-11-17T00:34:07.651Z,9.90
2022-11-17T00:36:39.349Z,9.67
2022-11-17T00:39:08.598Z,10.60
2022-11-17T00:41:36.765Z,8.57
2022-11-17T00:44:05.623Z,9.70
2022-11-17T00:46:37.098Z,7.90
2022-11-17T00:49:06.381Z,9.40
2022-11-17T00:51:35.086Z,10.03
2022-11-17T00:54:03.935Z,9.17
2022-11-17T00:56:32.526Z,8.43
2022-11-17T00:59:00.956Z,9.07
2022-11-17T01:01:30.614Z,7.90
2022-11-17T01:04:04.130Z,9.20
2022-11-17T01:06:33.897Z,8.73
2022-11-17T01:09:02.548Z,8.10
2022-11-17T01:11:30.852Z,9.20
2022-11-17T01:14:00.993Z,8.20
2022-11-17T01:16:31.134Z,8.30
2022-11-17T01:19:02.802Z,7.83
2022-11-17T01:21:32.104Z,7.83
2022-11-17T01:24:01.906Z,7.90
2022-11-17T01:26:32.124Z,8.07
2022-11-17T01:29:01.027Z,9.03
2022-11-17T01:31:31.188Z,9.37
2022-11-17T01:34:02.103Z,7.60
2022-11-17T01:36:52.277Z,7.50
2022-11-17T01:39:20.870Z,7.77
2022-11-17T01:41:49.003Z,7.60
2022-11-17T01:44:56.974Z,7.60
2022-11-17T01:47:32.258Z,7.73
2022-11-17T01:50:07.513Z,7.40
2022-11-17T01:52:38.488Z,7.67
2022-11-17T01:55:08.885Z,8.37
2022-11-17T01:57:41.353Z,9.10
2022-11-17T02:00:11.233Z,8.27
2022-11-17T02:02:42.051Z,8.20
2022-11-17T02:05:21.724Z,8.20
2022-11-17T02:07:59.678Z,8.97
2022-11-17T02:10:31.351Z,7.10
2022-11-17T02:13:01.106Z,7.80
2022-11-17T02:15:30.110Z,8.63
2022-11-17T02:18:00.205Z,8.10
2022-11-17T02:20:46.768Z,9.33
2022-11-17T02:23:46.947Z,6.73
2022-11-17T02:26:50.232Z,6.90
2022-11-17T02:29:26.179Z,8.23
2022-11-17T02:32:00.560Z,6.93
2022-11-17T02:34:37.736Z,8.47
2022-11-17T02:37:17.617Z,6.60
2022-11-17T02:39:55.014Z,7.80
2022-11-17T02:42:49.809Z,8.27
2022-11-17T02:45:22.605Z,8.87
2022-11-17T02:47:54.373Z,6.70
2022-11-17T02:50:28.473Z,7.77
2022-11-17T02:52:57.517Z,6.90
2022-11-17T02:55:27.630Z,8.97
2022-11-17T02:57:55.771Z,8.37
2022-11-17T03:00:25.463Z,8.20
2022-11-17T03:03:12.561Z,8.33
2022-11-17T03:05:51.562Z,8.00
2022-11-17T03:08:32.603Z,7.80
2022-11-17T03:11:03.701Z,9.03
2022-11-17T03:13:40.939Z,7.87
2022-11-17T03:16:22.696Z,8.70
2022-11-17T03:19:02.192Z,8.67
2022-11-17T03:21:35.596Z,7.40
2022-11-17T03:24:08.814Z,7.47
2022-11-17T03:26:41.099Z,9.00
2022-11-17T03:29:14.067Z,8.73
2022-11-17T03:31:46.399Z,7.90
2022-11-17T03:34:19.057Z,8.97
2022-11-17T03:36:52.957Z,9.20
2022-11-17T03:39:24.640Z,7.97
2022-11-17T03:41:58.336Z,8.47
2022-11-17T03:44:30.948Z,8.67
2022-11-17T03:47:02.798Z,8.10
2022-11-17T03:49:37.547Z,9.43
2022-11-17T03:52:05.886Z,8.73
2022-11-17T03:54:34.571Z,8.33
2022-11-17T03:57:08.050Z,8.50
2022-11-17T03:59:44.091Z,9.20
2022-11-17T04:02:18.559Z,8.67
2022-11-17T04:05:04.766Z,8.10
2022-11-17T04:07:33.046Z,9.77
2022-11-17T04:10:01.307Z,8.40
2022-11-17T04:12:47.092Z,9.60
2022-11-17T04:15:33.234Z,8.80
2022-11-17T04:18:02.939Z,8.90
2022-11-17T04:20:36.207Z,9.60
2022-11-17T04:23:11.437Z,8.97
2022-11-17T04:25:59.314Z,8.50
2022-11-17T04:28:38.127Z,8.47
2022-11-17T04:31:08.520Z,10.27
2022-11-17T04:33:39.431Z,8.90
2022-11-17T04:36:08.199Z,10.17
2022-11-17T04:38:36.582Z,8.97
2022-11-17T04:41:24.443Z,9.17
2022-11-17T04:43:53.687Z,9.67
2022-11-17T04:46:23.669Z,9.00
2022-11-17T04:48:54.184Z,10.33
2022-11-17T04:51:23.336Z,9.90
2022-11-17T04:53:51.661Z,9.60
2022-11-17T04:56:20.470Z,10.23
2022-11-17T04:58:49.246Z,8.83
2022-11-17T05:01:18.809Z,9.57
2022-11-17T05:03:48.567Z,9.53
2022-11-17T05:06:20.429Z,10.37
2022-11-17T05:08:49.431Z,10.10
2022-11-17T05:11:36.551Z,10.83
2022-11-17T05:14:04.674Z,10.00
2022-11-17T05:16:50.527Z,10.07
2022-11-17T05:19:20.483Z,9.47
2022-11-17T05:21:50.670Z,10.73
2022-11-17T05:24:18.311Z,11.70
2022-11-17T05:26:48.591Z,12.63
2022-11-17T05:29:18.660Z,10.83
2022-11-17T05:31:47.023Z,12.03
2022-11-17T05:34:17.377Z,10.77
2022-11-17T05:36:46.944Z,10.37
2022-11-17T05:39:16.440Z,11.10
2022-11-17T05:41:44.566Z,11.60
2022-11-17T05:44:12.674Z,11.57
2022-11-17T05:46:40.804Z,10.83
2022-11-17T05:49:08.967Z,9.90
2022-11-17T05:51:38.335Z,10.97
2022-11-17T05:54:06.591Z,11.40
2022-11-17T05:56:40.089Z,11.73
2022-11-17T05:59:24.720Z,11.90
2022-11-17T06:02:00.872Z,11.60
2022-11-17T06:04:29.916Z,10.53
2022-11-17T06:06:59.565Z,11.30
2022-11-17T06:09:29.621Z,11.33
2022-11-17T06:12:05.295Z,11.50
2022-11-17T06:14:34.416Z,13.10
2022-11-17T06:17:05.748Z,11.63
2022-11-17T06:19:37.520Z,10.07
2022-11-17T06:22:14.020Z,11.70
2022-11-17T06:24:44.033Z,11.43
2022-11-17T06:27:16.357Z,11.57
2022-11-17T06:29:45.353Z,10.73
2022-11-17T06:32:14.892Z,11.60
2022-11-17T06:34:43.896Z,10.90
2022-11-17T06:37:12.296Z,11.80
2022-11-17T06:39:40.453Z,10.20
2022-11-17T06:42:08.606Z,10.73
2022-11-17T06:44:38.053Z,11.43
2022-11-17T06:47:06.838Z,8.80
2022-11-17T06:49:35.000Z,9.83
2022-11-17T06:52:03.132Z,10.60
2022-11-17T06:54:31.258Z,9.73
2022-11-17T06:56:59.375Z,9.97
2022-11-17T06:59:27.499Z,10.07
2022-11-17T07:01:56.961Z,10.73
2022-11-17T07:04:25.095Z,10.40
2022-11-17T07:06:53.233Z,9.60
2022-11-17T07:09:21.392Z,10.17
2022-11-17T07:11:49.510Z,10.47
2022-11-17T07:14:17.653Z,11.10
2022-11-17T07:16:45.778Z,10.30
2022-11-17T07:19:15.295Z,11.33
2022-11-17T07:21:43.449Z,10.97
2022-11-17T07:24:11.993Z,11.40
2022-11-17T07:26:40.203Z,10.50
2022-11-17T07:29:08.328Z,10.60
2022-11-17T07:31:36.728Z,10.40
2022-11-17T07:34:04.904Z,9.20
2022-11-17T07:36:34.764Z,12.23
2022-11-17T07:39:02.953Z,11.40
2022-11-17T07:41:31.984Z,11.03
2022-11-17T07:44:00.281Z,12.20
2022-11-17T07:46:28.431Z,11.30
2022-11-17T07:48:56.803Z,11.23
2022-11-17T07:51:25.033Z,11.60
2022-11-17T07:53:54.713Z,9.90
2022-11-17T07:56:22.832Z,11.07
2022-11-17T07:58:50.952Z,10.57
2022-11-17T08:01:19.469Z,11.57
2022-11-17T08:03:47.984Z,11.20
2022-11-17T08:06:16.902Z,12.13
2022-11-17T08:08:45.060Z,12.00
2022-11-17T08:11:14.511Z,10.50
2022-11-17T08:13:43.021Z,11.30
2022-11-17T08:16:12.310Z,10.83
2022-11-17T08:18:41.085Z,9.80
2022-11-17T08:21:11.607Z,9.07
2022-11-17T08:23:39.752Z,11.10
2022-11-17T08:26:10.518Z,10.53
2022-11-17T08:28:40.407Z,9.03
2022-11-17T08:31:09.077Z,10.03
2022-11-17T08:33:37.469Z,9.00
2022-11-17T08:36:07.081Z,10.70
2022-11-17T08:38:36.141Z,10.07
2022-11-17T08:41:06.864Z,10.80
2022-11-17T08:43:35.562Z,10.20
2022-11-17T08:46:05.500Z,10.83
2022-11-17T08:48:34.024Z,11.17
2022-11-17T08:51:06.397Z,11.13
2022-11-17T08:53:34.544Z,10.07
2022-11-17T08:56:02.667Z,9.57
2022-11-17T08:58:30.811Z,8.53
2022-11-17T09:01:04.971Z,10.33
2022-11-17T09:03:34.888Z,9.70
2022-11-17T09:06:04.671Z,9.63
2022-11-17T09:08:48.292Z,10.67
2022-11-17T09:11:17.157Z,10.23
2022-11-17T09:13:46.826Z,8.93
2022-11-17T09:16:16.876Z,10.07
2022-11-17T09:18:46.400Z,7.90
2022-11-17T09:21:16.419Z,10.20
2022-11-17T09:23:44.918Z,8.60
2022-11-17T09:26:14.702Z,9.60
2022-11-17T09:28:43.962Z,7.63
2022-11-17T09:31:14.006Z,9.23
2022-11-17T09:33:42.717Z,8.00
2022-11-17T09:36:13.534Z,8.97
2022-11-17T09:38:42.327Z,7.83
2022-11-17T09:41:21.008Z,9.90
2022-11-17T09:43:55.279Z,8.20
2022-11-17T09:46:29.423Z,9.70
2022-11-17T09:49:08.922Z,9.20
2022-11-17T09:51:42.049Z,9.43
2022-11-17T09:54:19.463Z,8.43
2022-11-17T09:56:48.809Z,8.10
2022-11-17T09:59:20.807Z,7.10
2022-11-17T10:01:49.054Z,7.70
2022-11-17T10:04:18.536Z,7.83
2022-11-17T10:06:51.325Z,7.63
2022-11-17T10:09:29.401Z,7.90
2022-11-17T10:12:08.700Z,7.40
2022-11-17T10:14:41.007Z,8.03
2022-11-17T10:17:10.603Z,7.73
2022-11-17T10:19:39.849Z,6.93
2022-11-17T10:22:21.164Z,8.70
2022-11-17T10:24:52.109Z,6.13
2022-11-17T10:27:23.827Z,8.70
2022-11-17T10:30:02.815Z,6.83
2022-11-17T10:32:33.805Z,8.67
2022-11-17T10:35:15.960Z,7.57
2022-11-17T10:37:55.398Z,7.97
2022-11-17T10:40:26.173Z,7.77
2022-11-17T10:43:17.719Z,8.30
2022-11-17T10:45:46.439Z,7.87
2022-11-17T10:48:25.091Z,7.60
2022-11-17T10:50:56.058Z,7.37
2022-11-17T10:53:29.459Z,7.50
2022-11-17T10:56:02.653Z,7.60
2022-11-17T10:58:32.546Z,7.37
2022-11-17T11:01:03.609Z,7.57
2022-11-17T11:03:34.073Z,8.43
2022-11-17T11:06:05.734Z,8.47
2022-11-17T11:08:46.899Z,8.03
2022-11-17T11:11:25.154Z,7.90
2022-11-17T11:13:56.887Z,7.13
2022-11-17T11:16:27.211Z,6.97
2022-11-17T11:18:55.530Z,8.30
2022-11-17T11:21:37.732Z,6.03
2022-11-17T11:24:19.572Z,8.40
2022-11-17T11:26:57.771Z,7.20
2022-11-17T11:29:34.659Z,7.70
2022-11-17T11:32:21.170Z,7.33
2022-11-17T11:35:04.906Z,6.17
2022-11-17T11:37:39.083Z,7.87
2022-11-17T11:40:15.970Z,7.83
2022-11-17T11:42:53.216Z,7.57
2022-11-17T11:45:25.303Z,8.27
2022-11-17T11:48:11.502Z,8.30
2022-11-17T11:50:49.483Z,8.27
2022-11-17T11:53:24.545Z,8.07
2022-11-17T11:56:05.555Z,8.00
2022-11-17T11:58:33.618Z,8.83
2022-11-17T12:01:05.584Z,7.67
2022-11-17T12:03:37.439Z,6.67
2022-11-17T12:06:31.792Z,8.50
2022-11-17T12:09:11.626Z,8.13
2022-11-17T12:11:59.647Z,7.77
2022-11-17T12:14:29.249Z,7.47
2022-11-17T12:17:06.165Z,7.97
2022-11-17T12:19:51.114Z,8.40
2022-11-17T12:22:43.375Z,8.40
2022-11-17T12:25:20.111Z,8.87
2022-11-17T12:27:52.375Z,7.83
2022-11-17T12:30:53.856Z,8.33
2022-11-17T12:33:22.767Z,6.57
2022-11-17T12:36:30.557Z,8.43
2022-11-17T12:39:01.056Z,8.53
2022-11-17T12:42:07.402Z,8.93
2022-11-17T12:44:58.021Z,9.00
2022-11-17T12:47:28.215Z,8.40
2022-11-17T12:50:21.079Z,8.50
2022-11-17T12:53:00.825Z,9.80
2022-11-17T12:55:48.456Z,9.30
2022-11-17T12:58:27.175Z,8.80
2022-11-17T13:01:10.801Z,8.60
2022-11-17T13:03:48.334Z,8.83
2022-11-17T13:06:34.787Z,7.53
2022-11-17T13:09:07.232Z,8.17
2022-11-17T13:11:36.236Z,9.30
2022-11-17T13:14:09.540Z,8.80
2022-11-17T13:16:45.155Z,10.63
2022-11-17T13:19:35.113Z,7.97
2022-11-17T13:22:05.679Z,9.80
2022-11-17T13:24:36.611Z,9.80
2022-11-17T13:27:08.027Z,9.80
2022-11-17T13:29:36.629Z,10.47
2022-11-17T13:32:17.981Z,10.33
2022-11-17T13:34:48.440Z,8.40
2022-11-17T13:37:19.028Z,9.47
2022-11-17T13:40:01.855Z,10.30
2022-11-17T13:42:34.269Z,9.97
2022-11-17T13:45:05.945Z,11.10
2022-11-17T13:47:46.863Z,11.07
2022-11-17T13:50:33.736Z,9.87
2022-11-17T13:53:05.358Z,11.30
2022-11-17T13:55:34.595Z,10.33
2022-11-17T13:58:06.067Z,11.77
2022-11-17T14:00:35.048Z,11.10
2022-11-17T14:03:06.993Z,10.03
2022-11-17T14:05:35.401Z,10.50
2022-11-17T14:08:14.268Z,11.03
2022-11-17T14:10:42.683Z,11.60
2022-11-17T14:13:25.716Z,10.00
2022-11-17T14:15:59.863Z,11.90
2022-11-17T14:18:32.916Z,10.90
2022-11-17T14:21:22.321Z,10.97
2022-11-17T14:23:50.729Z,11.77
2022-11-17T14:26:21.675Z,12.03
2022-11-17T14:28:51.202Z,11.93
2022-11-17T14:31:19.792Z,12.07
2022-11-17T14:33:50.861Z,10.37
2022-11-17T14:36:19.285Z,11.43
2022-11-17T14:38:48.039Z,11.83
2022-11-17T14:41:17.488Z,12.80
2022-11-17T14:43:45.727Z,12.20
2022-11-17T14:46:26.520Z,11.17
2022-11-17T14:48:56.372Z,12.20
2022-11-17T14:51:25.405Z,12.10
2022-11-17T14:53:54.184Z,11.57
2022-11-17T14:56:24.586Z,12.53
2022-11-17T14:58:55.854Z,12.50
2022-11-17T15:01:28.311Z,12.27
2022-11-17T15:03:59.948Z,13.27
2022-11-17T15:06:28.643Z,13.23
2022-11-17T15:08:59.413Z,11.60
2022-11-17T15:11:29.265Z,11.10
2022-11-17T15:14:02.561Z,12.50
2022-11-17T15:16:30.811Z,13.00
2022-11-17T15:19:01.052Z,11.53
2022-11-17T15:21:29.468Z,13.43
2022-11-17T15:23:57.573Z,13.73
2022-11-17T15:26:25.691Z,13.93
2022-11-17T15:28:53.985Z,11.83
2022-11-17T15:31:22.118Z,13.83
2022-11-17T15:33:50.462Z,12.40
2022-11-17T15:36:21.760Z,11.33
2022-11-17T15:38:50.218Z,13.37
2022-11-17T15:41:18.447Z,13.20
2022-11-17T15:43:46.585Z,10.70
2022-11-17T15:46:16.827Z,12.17
2022-11-17T15:48:47.214Z,12.73
2022-11-17T15:51:17.552Z,10.70
2022-11-17T15:53:48.604Z,11.97
2022-11-17T15:56:18.898Z,11.40
2022-11-17T15:58:48.265Z,12.70
2022-11-17T16:01:26.006Z,11.80
2022-11-17T16:03:58.657Z,12.00
2022-11-17T16:06:27.317Z,13.40
2022-11-17T16:08:57.560Z,13.77
2022-11-17T16:11:27.063Z,12.10
2022-11-17T16:13:55.952Z,12.70
2022-11-17T16:16:25.336Z,13.70
2022-11-17T16:18:53.549Z,12.80
2022-11-17T16:21:21.788Z,13.97
2022-11-17T16:23:51.143Z,12.27
2022-11-17T16:26:21.579Z,12.80
2022-11-17T16:28:49.995Z,14.17
2022-11-17T16:31:19.985Z,12.63
2022-11-17T16:33:49.266Z,13.27
2022-11-17T16:36:18.047Z,14.03
2022-11-17T16:39:02.410Z,13.67
2022-11-17T16:41:33.975Z,13.77
2022-11-17T16:44:03.127Z,12.90
2022-11-17T16:46:32.611Z,12.97
2022-11-17T16:49:03.010Z,11.70
2022-11-17T16:51:31.638Z,14.10
2022-11-17T16:54:02.095Z,13.07
2022-11-17T16:56:33.447Z,13.13
2022-11-17T16:59:01.928Z,14.27
2022-11-17T17:01:32.398Z,13.37
2022-11-17T17:04:02.085Z,12.90
2022-11-17T17:06:30.772Z,14.77
2022-11-17T17:09:01.027Z,12.70
2022-11-17T17:11:31.775Z,13.33
2022-11-17T17:14:03.335Z,13.47
2022-11-17T17:16:32.953Z,14.80
2022-11-17T17:19:02.172Z,11.30
2022-11-17T17:21:31.244Z,12.30
2022-11-17T17:23:59.635Z,13.87
2022-11-17T17:26:29.595Z,13.50
2022-11-17T17:29:00.460Z,14.27
2022-11-17T17:31:34.483Z,14.63
2022-11-17T17:34:03.980Z,14.10
2022-11-17T17:36:32.500Z,13.90
2022-11-17T17:39:02.648Z,12.93
2022-11-17T17:41:32.392Z,12.30
2022-11-17T17:44:02.502Z,13.13
2022-11-17T17:46:36.167Z,12.43
2022-11-17T17:49:04.540Z,14.37
2022-11-17T17:51:32.767Z,12.80
2022-11-17T17:54:02.051Z,13.23
2022-11-17T17:56:30.933Z,12.67
2022-11-17T17:58:59.340Z,12.73
2022-11-17T18:01:29.656Z,13.60
2022-11-17T18:04:04.571Z,11.90
2022-11-17T18:06:36.784Z,12.70
2022-11-17T18:09:05.664Z,12.37
2022-11-17T18:11:35.570Z,11.57
2022-11-17T18:14:04.638Z,13.23
2022-11-17T18:16:34.200Z,12.23
2022-11-17T18:19:05.702Z,12.80
2022-11-17T18:21:34.194Z,12.63
2022-11-17T18:24:03.465Z,11.73
2022-11-17T18:26:33.194Z,12.40
2022-11-17T18:29:02.915Z,14.10
2022-11-17T18:31:33.098Z,12.43
2022-11-17T18:34:04.567Z,11.17
2022-11-17T18:36:33.599Z,13.70
2022-11-17T18:39:01.898Z,14.53
2022-11-17T18:41:32.141Z,13.53
2022-11-17T18:44:00.491Z,13.07
2022-11-17T18:46:30.082Z,12.17
2022-11-17T18:48:58.568Z,13.63
2022-11-17T18:51:29.782Z,13.40
2022-11-17T18:53:59.767Z,13.33
2022-11-17T18:56:30.760Z,14.33
2022-11-17T18:58:59.288Z,12.27
2022-11-17T19:01:29.286Z,12.50
2022-11-17T19:04:00.176Z,14.13
2022-11-17T19:06:30.564Z,13.83
2022-11-17T19:09:00.321Z,13.73
2022-11-17T19:11:30.683Z,13.20
2022-11-17T19:13:59.866Z,14.33
2022-11-17T19:16:27.990Z,13.90
2022-11-17T19:18:57.318Z,12.60
2022-11-17T19:21:27.155Z,12.67
2022-11-17T19:23:59.988Z,13.73
2022-11-17T19:26:29.917Z,14.77
2022-11-17T19:28:59.723Z,15.47
2022-11-17T19:31:28.170Z,13.17
2022-11-17T19:33:57.759Z,15.03
2022-11-17T19:36:29.295Z,12.87
2022-11-17T19:39:00.373Z,15.50
2022-11-17T19:41:30.551Z,10.20
2022-11-17T19:44:00.153Z,13.70
2022-11-17T19:46:29.578Z,14.60
2022-11-17T19:48:58.503Z,12.87
2022-11-17T19:51:29.189Z,12.67
2022-11-17T19:54:00.079Z,12.87
2022-11-17T19:56:28.488Z,12.17
2022-11-17T19:58:56.871Z,13.53
2022-11-17T20:01:26.872Z,13.10
2022-11-17T20:03:56.038Z,13.60
2022-11-17T20:06:27.172Z,13.20
2022-11-17T20:08:57.266Z,14.30
2022-11-17T20:11:28.976Z,13.47
2022-11-17T20:13:57.689Z,13.03
2022-11-17T20:16:27.310Z,12.30
2022-11-17T20:18:57.363Z,12.67
2022-11-17T20:21:25.847Z,11.93
2022-11-17T20:23:55.414Z,12.23
2022-11-17T20:26:27.001Z,12.57
2022-11-17T20:28:55.691Z,13.77
2022-11-17T20:31:25.608Z,11.70
2022-11-17T20:33:57.553Z,12.47
2022-11-17T20:36:25.923Z,11.90
2022-11-17T20:38:55.741Z,11.50
2022-11-17T20:41:25.389Z,12.37
2022-11-17T20:43:56.483Z,12.87
2022-11-17T20:46:25.675Z,11.53
2022-11-17T20:48:54.061Z,12.57
2022-11-17T20:51:23.729Z,12.87
2022-11-17T20:53:52.282Z,13.33
2022-11-17T20:56:21.235Z,11.90
2022-11-17T20:58:49.594Z,10.70
2022-11-17T21:01:21.454Z,12.67
2022-11-17T21:03:50.451Z,12.63
2022-11-17T21:06:19.613Z,12.37
2022-11-17T21:08:48.037Z,13.70
2022-11-17T21:11:32.311Z,11.60
2022-11-17T21:14:01.947Z,13.50
2022-11-17T21:16:31.534Z,13.00
2022-11-17T21:19:00.195Z,14.07
2022-11-17T21:21:28.334Z,13.63
2022-11-17T21:23:56.999Z,13.43
2022-11-17T21:26:25.536Z,15.10
2022-11-17T21:28:53.842Z,13.00
2022-11-17T21:31:24.462Z,13.47
2022-11-17T21:33:55.614Z,14.00
2022-11-17T21:36:25.153Z,14.00
2022-11-17T21:38:53.795Z,11.60
2022-11-17T21:41:23.569Z,14.97
2022-11-17T21:43:53.354Z,16.03
2022-11-17T21:46:23.818Z,14.93
2022-11-17T21:48:54.944Z,16.30
2022-11-17T21:51:25.081Z,14.83
2022-11-17T21:53:54.084Z,15.63
2022-11-17T21:56:25.593Z,13.00
2022-11-17T21:58:57.233Z,14.40
2022-11-17T22:01:25.834Z,14.90
2022-11-17T22:03:55.428Z,15.67
2022-11-17T22:06:24.941Z,14.23
2022-11-17T22:08:55.091Z,16.83
2022-11-17T22:11:36.575Z,16.13
2022-11-17T22:14:07.443Z,14.77
2022-11-17T22:16:36.122Z,16.10
2022-11-17T22:19:06.734Z,15.90
2022-11-17T22:21:36.318Z,14.00
2022-11-17T22:24:05.146Z,15.20
2022-11-17T22:26:35.764Z,16.30
2022-11-17T22:29:03.919Z,13.70
2022-11-17T22:31:32.552Z,15.70
2022-11-17T22:34:00.799Z,15.17
2022-11-17T22:36:30.333Z,15.20
2022-11-17T22:38:59.088Z,15.70
2022-11-17T22:41:27.477Z,15.53
2022-11-17T22:43:57.342Z,13.00
2022-11-17T22:46:27.211Z,14.80
2022-11-17T22:48:55.758Z,16.43
2022-11-17T22:51:39.135Z,14.97
2022-11-17T22:54:09.512Z,14.90
2022-11-17T22:56:39.183Z,15.70
2022-11-17T22:59:07.656Z,16.50
2022-11-17T23:01:35.889Z,12.83
2022-11-17T23:04:04.266Z,15.87
2022-11-17T23:06:32.540Z,15.60
2022-11-17T23:09:00.756Z,14.53
2022-11-17T23:11:37.074Z,15.30
2022-11-17T23:14:07.736Z,14.77
2022-11-17T23:16:36.687Z,16.30
2022-11-17T23:19:05.703Z,16.50
2022-11-17T23:21:33.933Z,14.03
2022-11-17T23:24:02.148Z,15.90
2022-11-17T23:26:31.614Z,15.10
2022-11-17T23:28:59.808Z,14.40
2022-11-17T23:31:28.363Z,14.33
2022-11-17T23:33:56.582Z,16.30
2022-11-17T23:36:25.118Z,15.30
2022-11-17T23:38:55.546Z,15.40
2022-11-17T23:41:23.698Z,14.57
2022-11-17T23:43:54.646Z,15.20
2022-11-17T23:46:25.560Z,16.60
2022-11-17T23:48:55.118Z,16.20
2022-11-17T23:51:24.711Z,15.90
2022-11-17T23:53:53.735Z,14.57
2022-11-17T23:56:22.005Z,15.80
2022-11-17T23:58:50.807Z,15.37
